createdAt,value
2019-04-28T00:00:02.243Z,10.63
2019-04-28T00:01:02.233Z,10.63
2019-04-28T00:02:02.226Z,10.63
2019-04-28T00:03:02.224Z,10.61
2019-04-28T00:04:03.484Z,10.60
2019-04-28T00:05:02.193Z,10.62
2019-04-28T00:06:02.187Z,10.59
2019-04-28T00:07:02.169Z,10.60
2019-04-28T00:08:02.159Z,10.57
2019-04-28T00:09:02.161Z,10.56
2019-04-28T00:10:02.137Z,10.57
2019-04-28T00:11:02.126Z,10.56
2019-04-28T00:12:02.116Z,10.56
2019-04-28T00:13:02.106Z,10.56
2019-04-28T00:14:02.098Z,10.56
2019-04-28T00:15:02.539Z,10.58
2019-04-28T00:16:02.074Z,10.58
2019-04-28T00:17:02.067Z,10.60
2019-04-28T00:18:04.154Z,10.59
2019-04-28T00:19:02.047Z,10.58
2019-04-28T00:20:02.032Z,10.59
2019-04-28T00:21:02.031Z,10.59
2019-04-28T00:22:02.014Z,10.59
2019-04-28T00:23:04.180Z,10.58
2019-04-28T00:24:01.990Z,10.59
2019-04-28T00:25:01.991Z,10.59
2019-04-28T00:26:01.969Z,10.57
2019-04-28T00:27:02.002Z,10.56
2019-04-28T00:28:01.946Z,10.56
2019-04-28T00:29:01.935Z,10.56
2019-04-28T00:30:02.198Z,10.55
2019-04-28T00:31:02.495Z,10.53
2019-04-28T00:32:01.904Z,10.53
2019-04-28T00:33:01.906Z,10.52
2019-04-28T00:34:01.884Z,10.51
2019-04-28T00:35:02.435Z,10.49
2019-04-28T00:36:01.862Z,10.50
2019-04-28T00:37:01.850Z,10.50
2019-04-28T00:38:01.840Z,10.49
2019-04-28T00:39:01.847Z,10.48
2019-04-28T00:40:01.818Z,10.49
2019-04-28T00:41:02.415Z,10.48
2019-04-28T00:42:03.305Z,10.47
2019-04-28T00:43:01.786Z,10.48
2019-04-28T00:44:02.023Z,10.48
2019-04-28T00:45:02.050Z,10.47
2019-04-28T00:46:01.755Z,10.47
2019-04-28T00:47:01.743Z,10.47
2019-04-28T00:48:01.732Z,10.48
2019-04-28T00:49:02.212Z,10.47
2019-04-28T00:50:02.260Z,10.47
2019-04-28T00:51:01.921Z,10.48
2019-04-28T00:52:03.103Z,10.47
2019-04-28T00:53:01.868Z,10.46
2019-04-28T00:54:01.669Z,10.47
2019-04-28T00:55:01.683Z,10.47
2019-04-28T00:56:02.145Z,10.48
2019-04-28T00:57:01.649Z,10.49
2019-04-28T00:58:01.625Z,10.49
2019-04-28T00:59:01.781Z,10.49
2019-04-28T01:00:02.430Z,10.50
2019-04-28T01:01:01.595Z,10.52
2019-04-28T01:02:01.586Z,10.51
2019-04-28T01:03:02.150Z,10.52
2019-04-28T01:04:02.124Z,10.53
2019-04-28T01:05:01.895Z,10.53
2019-04-28T01:06:01.962Z,10.53
2019-04-28T01:07:01.671Z,10.55
2019-04-28T01:08:01.519Z,10.55
2019-04-28T01:09:03.805Z,10.55
2019-04-28T01:10:01.599Z,10.55
2019-04-28T01:11:01.860Z,10.55
2019-04-28T01:12:01.901Z,10.56
2019-04-28T01:13:02.092Z,10.58
2019-04-28T01:14:01.802Z,10.57
2019-04-28T01:15:04.536Z,10.59
2019-04-28T01:16:01.434Z,10.59
2019-04-28T01:17:01.423Z,10.60
2019-04-28T01:18:01.413Z,10.59
2019-04-28T01:19:01.402Z,10.60
2019-04-28T01:20:01.398Z,10.62
2019-04-28T01:21:01.390Z,10.60
2019-04-28T01:22:01.369Z,10.62
2019-04-28T01:23:01.360Z,10.62
2019-04-28T01:24:01.349Z,10.63
2019-04-28T01:25:01.340Z,10.65
2019-04-28T01:26:01.338Z,10.66
2019-04-28T01:27:01.327Z,10.67
2019-04-28T01:28:01.311Z,10.68
2019-04-28T01:29:01.296Z,10.68
2019-04-28T01:30:07.970Z,10.70
2019-04-28T01:31:02.275Z,10.69
2019-04-28T01:32:01.262Z,10.69
2019-04-28T01:33:01.264Z,10.69
2019-04-28T01:34:01.655Z,10.72
2019-04-28T01:35:01.234Z,10.71
2019-04-28T01:36:01.220Z,10.72
2019-04-28T01:37:01.213Z,10.73
2019-04-28T01:38:01.197Z,10.73
2019-04-28T01:39:01.200Z,10.74
2019-04-28T01:40:01.176Z,10.75
2019-04-28T01:41:01.595Z,10.76
2019-04-28T01:42:01.155Z,10.77
2019-04-28T01:43:01.162Z,10.76
2019-04-28T01:44:01.134Z,10.78
2019-04-28T01:45:01.135Z,10.78
2019-04-28T01:46:01.113Z,10.79
2019-04-28T01:47:01.269Z,10.79
2019-04-28T01:48:02.307Z,10.79
2019-04-28T01:49:01.080Z,10.79
2019-04-28T01:50:02.061Z,10.81
2019-04-28T01:51:01.082Z,10.82
2019-04-28T01:52:01.317Z,10.83
2019-04-28T01:53:01.045Z,10.84
2019-04-28T01:54:01.026Z,10.85
2019-04-28T01:55:01.016Z,10.85
2019-04-28T01:56:01.007Z,10.83
2019-04-28T01:57:01.545Z,10.85
2019-04-28T01:58:00.984Z,10.86
2019-04-28T01:59:00.973Z,10.87
2019-04-28T02:00:00.963Z,10.87
2019-04-28T02:01:00.954Z,10.88
2019-04-28T02:02:00.941Z,10.89
2019-04-28T02:03:02.098Z,10.89
2019-04-28T02:04:00.919Z,10.90
2019-04-28T02:05:00.909Z,10.90
2019-04-28T02:06:00.898Z,10.90
2019-04-28T02:07:00.887Z,10.90
2019-04-28T02:08:00.875Z,10.92
2019-04-28T02:09:01.031Z,10.92
2019-04-28T02:10:00.919Z,10.91
2019-04-28T02:11:00.842Z,10.92
2019-04-28T02:12:00.921Z,10.94
2019-04-28T02:13:00.823Z,10.94
2019-04-28T02:14:00.810Z,10.95
2019-04-28T02:15:01.276Z,10.95
2019-04-28T02:16:00.791Z,10.96
2019-04-28T02:17:00.777Z,10.96
2019-04-28T02:18:00.767Z,10.97
2019-04-28T02:19:00.759Z,10.98
2019-04-28T02:20:00.889Z,10.97
2019-04-28T02:21:00.747Z,10.98
2019-04-28T02:22:00.722Z,11.01
2019-04-28T02:23:00.711Z,11.00
2019-04-28T02:24:00.700Z,11.00
2019-04-28T02:25:00.702Z,11.00
2019-04-28T02:26:00.683Z,11.00
2019-04-28T02:27:01.049Z,11.00
2019-04-28T02:28:00.656Z,11.01
2019-04-28T02:29:00.649Z,11.01
2019-04-28T02:30:00.635Z,11.00
2019-04-28T02:31:02.282Z,11.00
2019-04-28T02:32:02.216Z,11.00
2019-04-28T02:33:01.702Z,11.00
2019-04-28T02:34:00.800Z,11.00
2019-04-28T02:35:01.592Z,10.99
2019-04-28T02:36:01.413Z,10.98
2019-04-28T02:37:01.622Z,10.96
2019-04-28T02:38:00.551Z,10.95
2019-04-28T02:39:00.864Z,10.94
2019-04-28T02:40:03.330Z,10.94
2019-04-28T02:41:00.517Z,10.94
2019-04-28T02:42:01.455Z,10.93
2019-04-28T02:43:01.255Z,10.91
2019-04-28T02:44:01.047Z,10.91
2019-04-28T02:45:00.763Z,10.91
2019-04-28T02:46:00.805Z,10.91
2019-04-28T02:47:00.975Z,10.90
2019-04-28T02:48:01.066Z,10.91
2019-04-28T02:49:00.957Z,10.91
2019-04-28T02:50:00.913Z,10.91
2019-04-28T02:51:01.231Z,10.91
2019-04-28T02:52:02.925Z,10.92
2019-04-28T02:53:01.715Z,10.93
2019-04-28T02:54:00.680Z,10.92
2019-04-28T02:55:03.090Z,10.92
2019-04-28T02:56:00.968Z,10.94
2019-04-28T02:57:01.298Z,10.95
2019-04-28T02:58:01.404Z,10.95
2019-04-28T02:59:01.006Z,10.95
2019-04-28T03:00:00.620Z,10.97
2019-04-28T03:01:09.682Z,10.95
2019-04-28T03:02:01.317Z,10.95
2019-04-28T03:03:01.470Z,10.94
2019-04-28T03:04:00.473Z,10.96
2019-04-28T03:05:00.565Z,10.96
2019-04-28T03:06:01.385Z,10.98
2019-04-28T03:07:01.327Z,10.98
2019-04-28T03:08:01.048Z,10.98
2019-04-28T03:09:00.413Z,10.98
2019-04-28T03:10:03.236Z,10.98
2019-04-28T03:11:01.068Z,10.99
2019-04-28T03:12:01.553Z,10.99
2019-04-28T03:13:00.987Z,10.99
2019-04-28T03:14:00.949Z,10.99
2019-04-28T03:15:00.620Z,10.99
2019-04-28T03:16:01.488Z,11.00
2019-04-28T03:17:00.869Z,10.99
2019-04-28T03:18:01.742Z,11.02
2019-04-28T03:19:01.257Z,11.02
2019-04-28T03:20:00.981Z,11.01
2019-04-28T03:21:01.693Z,11.01
2019-04-28T03:22:01.350Z,11.02
2019-04-28T03:23:00.937Z,11.02
2019-04-28T03:24:01.252Z,11.02
2019-04-28T03:25:00.874Z,11.04
2019-04-28T03:26:01.437Z,11.04
2019-04-28T03:27:00.610Z,11.02
2019-04-28T03:28:00.651Z,11.03
2019-04-28T03:29:01.014Z,11.03
2019-04-28T03:30:00.914Z,11.04
2019-04-28T03:31:06.433Z,11.03
2019-04-28T03:32:23.106Z,11.03
2019-04-28T03:33:10.988Z,11.03
2019-04-28T03:34:04.105Z,11.04
2019-04-28T03:35:03.120Z,11.03
2019-04-28T03:36:03.723Z,11.03
2019-04-28T03:37:00.910Z,11.02
2019-04-28T03:38:01.260Z,11.01
2019-04-28T03:39:00.706Z,11.02
2019-04-28T03:40:00.616Z,11.01
2019-04-28T03:41:01.009Z,11.00
2019-04-28T03:42:00.203Z,11.01
2019-04-28T03:43:02.876Z,11.01
2019-04-28T03:44:00.545Z,11.01
2019-04-28T03:45:01.068Z,11.00
2019-04-28T03:46:00.758Z,11.01
2019-04-28T03:47:00.714Z,10.99
2019-04-28T03:48:00.350Z,10.99
2019-04-28T03:49:00.809Z,10.99
2019-04-28T03:50:00.166Z,11.00
2019-04-28T03:51:00.676Z,10.99
2019-04-28T03:52:00.402Z,10.99
2019-04-28T03:53:01.066Z,10.99
2019-04-28T03:54:02.414Z,10.99
2019-04-28T03:55:00.508Z,10.99
2019-04-28T03:56:01.527Z,10.98
2019-04-28T03:57:01.304Z,10.99
2019-04-28T03:58:00.899Z,10.99
2019-04-28T03:59:00.483Z,11.00
2019-04-28T04:00:01.434Z,11.00
2019-04-28T04:01:02.683Z,10.99
2019-04-28T04:02:03.170Z,10.99
2019-04-28T04:03:00.815Z,10.99
2019-04-28T04:04:01.184Z,10.98
2019-04-28T04:05:03.293Z,10.98
2019-04-28T04:06:00.864Z,10.99
2019-04-28T04:07:01.502Z,10.99
2019-04-28T04:08:00.868Z,11.00
2019-04-28T04:09:00.325Z,10.99
2019-04-28T04:10:00.952Z,10.98
2019-04-28T04:11:00.230Z,10.98
2019-04-28T04:12:00.314Z,10.99
2019-04-28T04:13:00.885Z,10.98
2019-04-28T04:14:01.674Z,10.99
2019-04-28T04:15:00.770Z,11.00
2019-04-28T04:16:01.557Z,11.00
2019-04-28T04:17:00.125Z,11.01
2019-04-28T04:18:01.279Z,11.01
2019-04-28T04:19:00.701Z,11.01
2019-04-28T04:20:01.831Z,11.01
2019-04-28T04:21:00.773Z,11.02
2019-04-28T04:22:00.359Z,11.01
2019-04-28T04:23:01.460Z,11.03
2019-04-28T04:24:01.123Z,11.04
2019-04-28T04:25:01.254Z,11.03
2019-04-28T04:26:01.653Z,11.03
2019-04-28T04:27:00.877Z,11.05
2019-04-28T04:28:02.981Z,11.05
2019-04-28T04:29:00.954Z,11.05
2019-04-28T04:30:01.572Z,11.04
2019-04-28T04:31:02.516Z,11.04
2019-04-28T04:32:13.864Z,11.04
2019-04-28T04:33:01.269Z,11.05
2019-04-28T04:34:00.693Z,11.04
2019-04-28T04:35:00.695Z,11.06
2019-04-28T04:36:01.653Z,11.06
2019-04-28T04:37:00.746Z,11.07
2019-04-28T04:38:00.519Z,11.08
2019-04-28T04:39:01.768Z,11.09
2019-04-28T04:40:01.375Z,11.08
2019-04-28T04:41:01.553Z,11.08
2019-04-28T04:42:00.648Z,11.09
2019-04-28T04:43:01.521Z,11.09
2019-04-28T04:44:01.137Z,11.10
2019-04-28T04:45:00.507Z,11.11
2019-04-28T04:46:01.426Z,11.12
2019-04-28T04:47:00.988Z,11.13
2019-04-28T04:48:00.654Z,11.14
2019-04-28T04:49:00.716Z,11.16
2019-04-28T04:50:00.285Z,11.17
2019-04-28T04:51:00.759Z,11.18
2019-04-28T04:52:00.392Z,11.19
2019-04-28T04:52:59.088Z,11.20
2019-04-28T04:54:01.073Z,11.21
2019-04-28T04:55:01.288Z,11.23
2019-04-28T04:56:00.359Z,11.25
2019-04-28T04:57:00.065Z,11.27
2019-04-28T04:58:00.789Z,11.29
2019-04-28T04:59:02.196Z,11.32
2019-04-28T04:59:59.981Z,11.33
2019-04-28T05:01:00.794Z,11.33
2019-04-28T05:02:01.710Z,11.35
2019-04-28T05:03:00.850Z,11.38
2019-04-28T05:03:59.626Z,11.39
2019-04-28T05:05:00.415Z,11.43
2019-04-28T05:06:00.138Z,11.45
2019-04-28T05:06:59.715Z,11.46
2019-04-28T05:08:00.324Z,11.49
2019-04-28T05:08:59.925Z,11.50
2019-04-28T05:09:59.499Z,11.52
2019-04-28T05:11:00.036Z,11.53
2019-04-28T05:11:59.753Z,11.57
2019-04-28T05:13:00.229Z,11.59
2019-04-28T05:13:59.686Z,11.60
2019-04-28T05:15:00.492Z,11.63
2019-04-28T05:15:59.849Z,11.66
2019-04-28T05:17:00.676Z,11.68
2019-04-28T05:18:00.226Z,11.71
2019-04-28T05:19:00.106Z,11.73
2019-04-28T05:19:59.710Z,11.75
2019-04-28T05:20:59.500Z,11.78
2019-04-28T05:22:00.029Z,11.82
2019-04-28T05:23:00.263Z,11.83
2019-04-28T05:23:59.637Z,11.86
2019-04-28T05:25:00.062Z,11.87
2019-04-28T05:26:01.493Z,11.88
2019-04-28T05:26:59.733Z,11.90
2019-04-28T05:28:02.683Z,11.93
2019-04-28T05:28:59.528Z,11.96
2019-04-28T05:30:02.450Z,12.01
2019-04-28T05:31:00.100Z,12.03
2019-04-28T05:31:59.893Z,12.07
2019-04-28T05:33:00.262Z,12.10
2019-04-28T05:34:00.019Z,12.13
2019-04-28T05:35:00.153Z,12.16
2019-04-28T05:36:02.609Z,12.19
2019-04-28T05:37:00.542Z,12.24
2019-04-28T05:37:59.751Z,12.27
2019-04-28T05:39:00.141Z,12.30
2019-04-28T05:40:00.638Z,12.34
2019-04-28T05:41:02.318Z,12.38
2019-04-28T05:42:00.646Z,12.41
2019-04-28T05:43:00.525Z,12.42
2019-04-28T05:43:59.603Z,12.43
2019-04-28T05:44:59.920Z,12.47
2019-04-28T05:46:00.175Z,12.50
2019-04-28T05:46:59.546Z,12.54
2019-04-28T05:47:59.433Z,12.56
2019-04-28T05:48:59.974Z,12.59
2019-04-28T05:49:59.893Z,12.62
2019-04-28T05:50:59.937Z,12.66
2019-04-28T05:51:58.444Z,12.69
2019-04-28T05:53:00.399Z,12.74
2019-04-28T05:53:59.501Z,12.78
2019-04-28T05:54:59.796Z,12.81
2019-04-28T05:56:00.074Z,12.87
2019-04-28T05:56:59.741Z,12.93
2019-04-28T05:57:59.936Z,12.99
2019-04-28T05:59:00.511Z,13.05
2019-04-28T06:00:00.984Z,13.10
2019-04-28T06:01:00.106Z,13.15
2019-04-28T06:02:00.499Z,13.21
2019-04-28T06:02:58.327Z,13.27
2019-04-28T06:03:58.315Z,13.35
2019-04-28T06:04:59.926Z,13.41
2019-04-28T06:05:59.977Z,13.50
2019-04-28T06:06:59.759Z,13.60
2019-04-28T06:07:59.619Z,13.71
2019-04-28T06:08:59.819Z,13.81
2019-04-28T06:10:00.053Z,13.93
2019-04-28T06:10:59.890Z,14.05
2019-04-28T06:12:00.025Z,14.18
2019-04-28T06:12:59.767Z,14.30
2019-04-28T06:13:59.929Z,14.42
2019-04-28T06:15:00.035Z,14.54
2019-04-28T06:15:59.887Z,14.65
2019-04-28T06:16:58.174Z,14.76
2019-04-28T06:18:00.000Z,14.88
2019-04-28T06:18:59.978Z,15.02
2019-04-28T06:20:00.061Z,15.39
2019-04-28T06:20:58.129Z,15.97
2019-04-28T06:21:58.118Z,16.37
2019-04-28T06:22:58.108Z,16.45
2019-04-28T06:23:58.098Z,16.44
2019-04-28T06:24:58.108Z,16.39
2019-04-28T06:25:58.086Z,16.38
2019-04-28T06:26:58.101Z,16.38
2019-04-28T06:27:58.054Z,16.39
2019-04-28T06:28:58.048Z,16.41
2019-04-28T06:29:58.033Z,16.45
2019-04-28T06:30:58.032Z,16.47
2019-04-28T06:31:58.084Z,16.48
2019-04-28T06:33:07.733Z,16.47
2019-04-28T06:33:58.990Z,16.48
2019-04-28T06:34:57.978Z,16.51
2019-04-28T06:35:58.016Z,16.55
2019-04-28T06:36:57.966Z,16.58
2019-04-28T06:37:57.946Z,16.61
2019-04-28T06:38:57.934Z,16.66
2019-04-28T06:39:57.923Z,16.72
2019-04-28T06:40:57.912Z,16.80
2019-04-28T06:41:57.901Z,16.89
2019-04-28T06:42:57.907Z,17.01
2019-04-28T06:43:57.878Z,17.13
2019-04-28T06:44:57.868Z,17.26
2019-04-28T06:45:57.857Z,17.36
2019-04-28T06:46:57.849Z,17.45
2019-04-28T06:47:57.835Z,17.56
2019-04-28T06:48:57.834Z,17.62
2019-04-28T06:49:57.813Z,17.70
2019-04-28T06:50:57.803Z,17.77
2019-04-28T06:51:57.791Z,17.85
2019-04-28T06:52:57.782Z,17.90
2019-04-28T06:53:57.770Z,17.97
2019-04-28T06:54:57.774Z,18.06
2019-04-28T06:55:57.749Z,18.15
2019-04-28T06:56:57.742Z,18.23
2019-04-28T06:57:57.728Z,18.33
2019-04-28T06:58:59.252Z,18.46
2019-04-28T06:59:57.706Z,18.58
2019-04-28T07:00:57.728Z,18.73
2019-04-28T07:01:57.684Z,18.88
2019-04-28T07:02:57.674Z,19.04
2019-04-28T07:03:57.664Z,19.19
2019-04-28T07:05:02.260Z,19.33
2019-04-28T07:05:57.643Z,19.49
2019-04-28T07:06:57.642Z,19.67
2019-04-28T07:07:57.620Z,19.91
2019-04-28T07:08:57.612Z,20.35
2019-04-28T07:09:57.597Z,20.63
2019-04-28T07:10:57.586Z,20.70
2019-04-28T07:11:57.576Z,20.71
2019-04-28T07:12:57.574Z,20.75
2019-04-28T07:13:57.554Z,20.78
2019-04-28T07:14:57.541Z,20.87
2019-04-28T07:15:57.536Z,20.98
2019-04-28T07:16:57.519Z,21.11
2019-04-28T07:17:57.509Z,21.15
2019-04-28T07:18:57.513Z,21.50
2019-04-28T07:19:57.489Z,21.73
2019-04-28T07:20:57.478Z,21.76
2019-04-28T07:21:57.466Z,21.62
2019-04-28T07:22:57.457Z,21.54
2019-04-28T07:23:57.444Z,21.57
2019-04-28T07:24:57.451Z,21.57
2019-04-28T07:25:57.426Z,21.61
2019-04-28T07:26:57.412Z,22.90
2019-04-28T07:27:57.401Z,22.79
2019-04-28T07:28:57.390Z,22.69
2019-04-28T07:29:57.381Z,22.67
2019-04-28T07:30:57.378Z,23.13
2019-04-28T07:31:57.357Z,22.88
2019-04-28T07:32:57.349Z,22.45
2019-04-28T07:33:57.335Z,22.32
2019-04-28T07:34:57.324Z,22.42
2019-04-28T07:35:57.312Z,22.68
2019-04-28T07:36:57.329Z,24.14
2019-04-28T07:37:57.290Z,23.82
2019-04-28T07:38:57.280Z,23.28
2019-04-28T07:39:57.270Z,23.01
2019-04-28T07:40:57.259Z,22.86
2019-04-28T07:41:57.248Z,22.47
2019-04-28T07:42:57.267Z,22.30
2019-04-28T07:43:57.225Z,22.09
2019-04-28T07:44:57.216Z,22.03
2019-04-28T07:45:57.214Z,22.31
2019-04-28T07:46:57.195Z,22.23
2019-04-28T07:47:57.183Z,21.85
2019-04-28T07:48:57.183Z,21.52
2019-04-28T07:49:57.161Z,21.30
2019-04-28T07:50:57.156Z,21.13
2019-04-28T07:51:57.142Z,20.91
2019-04-28T07:52:57.128Z,20.77
2019-04-28T07:53:57.117Z,20.64
2019-04-28T07:54:57.115Z,20.52
2019-04-28T07:55:57.095Z,20.40
2019-04-28T07:56:57.083Z,20.28
2019-04-28T07:57:57.073Z,20.12
2019-04-28T07:58:57.061Z,20.00
2019-04-28T07:59:57.051Z,20.21
2019-04-28T08:00:57.050Z,20.82
2019-04-28T08:01:57.028Z,21.33
2019-04-28T08:02:57.019Z,21.49
2019-04-28T08:03:57.589Z,21.42
2019-04-28T08:04:56.999Z,21.93
2019-04-28T08:05:57.080Z,21.86
2019-04-28T08:06:56.983Z,21.85
2019-04-28T08:07:56.962Z,21.93
2019-04-28T08:08:56.950Z,21.75
2019-04-28T08:09:56.940Z,21.62
2019-04-28T08:10:56.933Z,21.49
2019-04-28T08:11:56.917Z,21.27
2019-04-28T08:12:56.919Z,21.07
2019-04-28T08:13:56.894Z,20.97
2019-04-28T08:14:56.885Z,20.76
2019-04-28T08:15:56.873Z,20.64
2019-04-28T08:16:56.864Z,20.91
2019-04-28T08:17:56.852Z,21.45
2019-04-28T08:18:56.851Z,22.05
2019-04-28T08:19:56.830Z,22.51
2019-04-28T08:20:56.817Z,22.78
2019-04-28T08:21:56.812Z,22.98
2019-04-28T08:22:56.794Z,22.99
2019-04-28T08:23:56.794Z,23.32
2019-04-28T08:24:56.783Z,23.79
2019-04-28T08:25:56.763Z,23.29
2019-04-28T08:26:56.750Z,22.89
2019-04-28T08:27:56.743Z,22.47
2019-04-28T08:28:56.728Z,21.99
2019-04-28T08:29:58.606Z,21.51
2019-04-28T08:30:56.721Z,21.31
2019-04-28T08:31:56.695Z,20.96
2019-04-28T08:32:56.685Z,20.57
2019-04-28T08:34:02.699Z,20.37
2019-04-28T08:34:57.660Z,20.19
2019-04-28T08:35:56.651Z,19.89
2019-04-28T08:36:56.650Z,19.64
2019-04-28T08:37:56.635Z,19.47
2019-04-28T08:38:56.622Z,19.34
2019-04-28T08:39:56.607Z,19.29
2019-04-28T08:40:56.596Z,19.74
2019-04-28T08:41:56.585Z,20.10
2019-04-28T08:42:56.586Z,20.34
2019-04-28T08:43:56.568Z,20.43
2019-04-28T08:44:56.552Z,20.33
2019-04-28T08:45:56.541Z,20.20
2019-04-28T08:46:56.530Z,20.04
2019-04-28T08:47:58.007Z,19.88
2019-04-28T08:48:56.529Z,19.71
2019-04-28T08:49:56.500Z,19.55
2019-04-28T08:50:56.486Z,19.40
2019-04-28T08:51:56.483Z,19.40
2019-04-28T08:52:56.465Z,19.34
2019-04-28T08:53:56.453Z,19.45
2019-04-28T08:54:56.453Z,19.93
2019-04-28T08:55:56.431Z,20.29
2019-04-28T08:56:56.420Z,20.65
2019-04-28T08:57:56.410Z,21.08
2019-04-28T08:58:56.397Z,21.28
2019-04-28T08:59:56.387Z,21.80
2019-04-28T09:00:56.389Z,22.29
2019-04-28T09:01:56.365Z,22.40
2019-04-28T09:02:56.354Z,22.86
2019-04-28T09:03:56.343Z,22.94
2019-04-28T09:04:56.332Z,22.78
2019-04-28T09:05:56.321Z,22.56
2019-04-28T09:06:56.323Z,22.33
2019-04-28T09:07:56.301Z,22.11
2019-04-28T09:08:56.293Z,22.03
2019-04-28T09:09:56.278Z,21.96
2019-04-28T09:10:56.270Z,21.81
2019-04-28T09:11:56.259Z,21.65
2019-04-28T09:12:56.257Z,21.55
2019-04-28T09:13:56.245Z,21.46
2019-04-28T09:14:56.225Z,21.36
2019-04-28T09:15:56.214Z,21.27
2019-04-28T09:16:56.204Z,21.20
2019-04-28T09:17:56.193Z,21.10
2019-04-28T09:18:56.194Z,21.06
2019-04-28T09:19:56.185Z,21.15
2019-04-28T09:20:56.161Z,21.32
2019-04-28T09:21:56.152Z,21.51
2019-04-28T09:22:56.141Z,21.69
2019-04-28T09:23:56.129Z,21.79
2019-04-28T09:24:56.131Z,21.86
2019-04-28T09:25:56.113Z,21.90
2019-04-28T09:26:56.102Z,21.89
2019-04-28T09:27:56.090Z,21.80
2019-04-28T09:28:56.081Z,21.66
2019-04-28T09:29:56.063Z,21.53
2019-04-28T09:30:56.063Z,21.41
2019-04-28T09:31:56.042Z,21.23
2019-04-28T09:32:56.032Z,21.04
2019-04-28T09:33:56.022Z,20.82
2019-04-28T09:34:56.010Z,20.63
2019-04-28T09:35:56.002Z,20.42
2019-04-28T09:36:56.000Z,20.21
2019-04-28T09:37:55.978Z,20.02
2019-04-28T09:38:55.972Z,19.83
2019-04-28T09:39:55.957Z,19.72
2019-04-28T09:40:55.946Z,19.68
2019-04-28T09:41:55.936Z,19.69
2019-04-28T09:42:55.934Z,19.75
2019-04-28T09:43:55.912Z,19.83
2019-04-28T09:44:55.900Z,19.99
2019-04-28T09:45:55.890Z,20.21
2019-04-28T09:46:55.945Z,20.42
2019-04-28T09:47:55.868Z,20.65
2019-04-28T09:48:55.875Z,20.87
2019-04-28T09:49:55.847Z,21.05
2019-04-28T09:50:55.834Z,21.21
2019-04-28T09:51:55.824Z,21.36
2019-04-28T09:52:55.814Z,21.47
2019-04-28T09:53:55.802Z,21.61
2019-04-28T09:54:55.808Z,21.72
2019-04-28T09:55:55.781Z,21.81
2019-04-28T09:56:57.086Z,21.87
2019-04-28T09:57:55.760Z,21.87
2019-04-28T09:58:55.749Z,21.87
2019-04-28T09:59:55.739Z,21.88
2019-04-28T10:00:55.740Z,21.89
2019-04-28T10:01:55.721Z,21.90
2019-04-28T10:02:55.709Z,21.91
2019-04-28T10:03:55.697Z,21.92
2019-04-28T10:04:55.685Z,21.88
2019-04-28T10:05:55.675Z,21.83
2019-04-28T10:06:55.675Z,21.79
2019-04-28T10:07:55.653Z,21.76
2019-04-28T10:08:55.643Z,21.67
2019-04-28T10:09:55.649Z,21.56
2019-04-28T10:10:55.621Z,21.48
2019-04-28T10:11:55.610Z,21.41
2019-04-28T10:12:55.612Z,21.38
2019-04-28T10:13:57.081Z,21.36
2019-04-28T10:14:55.578Z,21.34
2019-04-28T10:15:55.567Z,21.29
2019-04-28T10:16:55.556Z,21.25
2019-04-28T10:17:55.546Z,21.22
2019-04-28T10:18:55.546Z,21.16
2019-04-28T10:19:55.527Z,21.13
2019-04-28T10:20:55.516Z,21.10
2019-04-28T10:21:55.503Z,21.06
2019-04-28T10:22:55.493Z,21.08
2019-04-28T10:23:55.482Z,21.12
2019-04-28T10:24:55.481Z,21.17
2019-04-28T10:25:55.461Z,21.21
2019-04-28T10:26:55.449Z,21.28
2019-04-28T10:27:55.439Z,21.40
2019-04-28T10:28:55.433Z,21.47
2019-04-28T10:29:55.432Z,21.62
2019-04-28T10:30:55.423Z,21.66
2019-04-28T10:31:55.399Z,21.67
2019-04-28T10:32:55.386Z,21.65
2019-04-28T10:33:55.373Z,21.62
2019-04-28T10:34:55.489Z,21.64
2019-04-28T10:35:55.351Z,21.66
2019-04-28T10:36:55.351Z,21.68
2019-04-28T10:37:55.330Z,21.65
2019-04-28T10:38:55.321Z,21.60
2019-04-28T10:39:55.308Z,21.51
2019-04-28T10:40:55.297Z,21.41
2019-04-28T10:41:55.287Z,21.33
2019-04-28T10:42:55.289Z,21.23
2019-04-28T10:43:55.291Z,21.14
2019-04-28T10:44:55.259Z,21.06
2019-04-28T10:45:55.243Z,20.98
2019-04-28T10:46:55.232Z,20.89
2019-04-28T10:47:55.223Z,20.80
2019-04-28T10:48:55.223Z,20.74
2019-04-28T10:49:55.203Z,20.66
2019-04-28T10:50:55.190Z,20.57
2019-04-28T10:51:59.529Z,20.49
2019-04-28T10:52:55.169Z,20.43
2019-04-28T10:53:55.158Z,20.40
2019-04-28T10:54:55.159Z,20.39
2019-04-28T10:55:55.136Z,20.40
2019-04-28T10:56:55.127Z,20.41
2019-04-28T10:57:55.115Z,20.43
2019-04-28T10:58:55.108Z,20.46
2019-04-28T10:59:55.094Z,20.47
2019-04-28T11:00:55.101Z,20.47
2019-04-28T11:01:55.072Z,20.51
2019-04-28T11:02:55.061Z,20.51
2019-04-28T11:03:55.050Z,20.50
2019-04-28T11:05:07.479Z,20.46
2019-04-28T11:05:56.046Z,20.42
2019-04-28T11:06:55.018Z,20.38
2019-04-28T11:07:55.011Z,20.34
2019-04-28T11:08:54.995Z,20.28
2019-04-28T11:09:54.984Z,20.22
2019-04-28T11:10:54.974Z,20.20
2019-04-28T11:11:54.977Z,20.15
2019-04-28T11:12:54.953Z,20.09
2019-04-28T11:13:54.948Z,20.01
2019-04-28T11:14:54.931Z,19.93
2019-04-28T11:15:54.936Z,19.81
2019-04-28T11:16:54.909Z,19.64
2019-04-28T11:17:54.911Z,19.46
2019-04-28T11:18:54.889Z,19.22
2019-04-28T11:19:54.884Z,18.99
2019-04-28T11:20:54.872Z,18.76
2019-04-28T11:21:54.855Z,18.58
2019-04-28T11:22:54.844Z,18.41
2019-04-28T11:23:54.845Z,18.28
2019-04-28T11:24:54.826Z,18.11
2019-04-28T11:25:54.817Z,17.99
2019-04-28T11:26:54.802Z,17.86
2019-04-28T11:27:55.551Z,17.77
2019-04-28T11:28:54.781Z,17.66
2019-04-28T11:29:54.782Z,17.58
2019-04-28T11:30:54.758Z,17.50
2019-04-28T11:31:54.748Z,17.37
2019-04-28T11:32:54.735Z,17.26
2019-04-28T11:33:54.724Z,17.14
2019-04-28T11:34:54.713Z,17.05
2019-04-28T11:35:54.714Z,17.00
2019-04-28T11:36:54.692Z,16.97
2019-04-28T11:37:54.680Z,17.01
2019-04-28T11:38:54.675Z,17.07
2019-04-28T11:39:54.658Z,17.16
2019-04-28T11:40:54.648Z,17.23
2019-04-28T11:41:54.666Z,17.32
2019-04-28T11:42:54.643Z,17.42
2019-04-28T11:43:54.615Z,17.51
2019-04-28T11:44:54.605Z,17.62
2019-04-28T11:45:54.594Z,17.74
2019-04-28T11:46:54.587Z,17.85
2019-04-28T11:47:54.613Z,17.98
2019-04-28T11:48:54.563Z,18.11
2019-04-28T11:49:54.552Z,18.28
2019-04-28T11:50:54.541Z,18.42
2019-04-28T11:51:54.530Z,18.55
2019-04-28T11:52:54.520Z,18.66
2019-04-28T11:53:54.521Z,18.79
2019-04-28T11:54:54.496Z,18.90
2019-04-28T11:55:54.502Z,19.03
2019-04-28T11:56:54.475Z,19.14
2019-04-28T11:57:54.467Z,19.24
2019-04-28T11:58:54.452Z,19.38
2019-04-28T11:59:54.456Z,19.49
2019-04-28T12:00:54.431Z,19.60
2019-04-28T12:01:54.420Z,19.70
2019-04-28T12:02:54.428Z,19.77
2019-04-28T12:03:54.407Z,19.80
2019-04-28T12:04:54.391Z,19.83
2019-04-28T12:05:54.394Z,19.85
2019-04-28T12:06:54.371Z,19.91
2019-04-28T12:07:54.356Z,19.98
2019-04-28T12:08:54.350Z,20.04
2019-04-28T12:10:04.875Z,20.10
2019-04-28T12:10:55.349Z,20.17
2019-04-28T12:11:54.313Z,20.22
2019-04-28T12:12:54.303Z,20.25
2019-04-28T12:13:54.303Z,20.28
2019-04-28T12:14:54.283Z,20.28
2019-04-28T12:15:54.279Z,20.25
2019-04-28T12:16:54.276Z,20.22
2019-04-28T12:17:54.246Z,20.21
2019-04-28T12:18:54.234Z,20.21
2019-04-28T12:19:54.224Z,20.18
2019-04-28T12:20:54.214Z,20.15
2019-04-28T12:21:54.202Z,20.14
2019-04-28T12:22:54.231Z,20.08
2019-04-28T12:23:54.182Z,20.04
2019-04-28T12:24:54.168Z,20.04
2019-04-28T12:25:54.160Z,20.04
2019-04-28T12:26:54.145Z,20.07
2019-04-28T12:27:54.135Z,20.12
2019-04-28T12:28:54.154Z,20.19
2019-04-28T12:29:54.113Z,20.26
2019-04-28T12:30:54.106Z,20.33
2019-04-28T12:31:54.100Z,20.40
2019-04-28T12:32:54.084Z,20.47
2019-04-28T12:33:54.069Z,20.53
2019-04-28T12:34:54.071Z,20.61
2019-04-28T12:35:54.047Z,20.66
2019-04-28T12:36:54.038Z,20.72
2019-04-28T12:37:54.026Z,20.76
2019-04-28T12:38:54.018Z,20.80
2019-04-28T12:39:54.004Z,20.83
2019-04-28T12:40:54.005Z,20.88
2019-04-28T12:41:53.985Z,20.92
2019-04-28T12:42:53.973Z,20.98
2019-04-28T12:43:53.961Z,21.04
2019-04-28T12:44:53.953Z,21.12
2019-04-28T12:45:53.940Z,21.18
2019-04-28T12:46:53.963Z,21.24
2019-04-28T12:47:53.918Z,21.29
2019-04-28T12:48:53.908Z,21.33
2019-04-28T12:49:53.898Z,21.37
2019-04-28T12:50:53.891Z,21.41
2019-04-28T12:51:53.875Z,21.49